createdAt,value
2019-06-01T00:00:33.705Z,0.00
2019-06-01T00:01:33.982Z,0.00
2019-06-01T00:02:33.662Z,0.00
2019-06-01T00:03:33.663Z,0.00
2019-06-01T00:04:33.638Z,0.00
2019-06-01T00:05:33.812Z,0.00
2019-06-01T00:06:33.616Z,0.00
2019-06-01T00:07:33.590Z,0.00
2019-06-01T00:08:33.869Z,0.00
2019-06-01T00:09:33.545Z,0.00
2019-06-01T00:12:33.715Z,0.00
2019-06-01T00:14:33.464Z,0.00
2019-06-01T00:15:33.819Z,0.00
2019-06-01T00:16:33.431Z,0.00
2019-06-01T00:17:33.419Z,0.00
2019-06-01T00:18:33.453Z,0.00
2019-06-01T00:19:33.378Z,0.00
2019-06-01T00:20:33.364Z,0.00
2019-06-01T00:21:33.345Z,0.00
2019-06-01T00:22:33.632Z,0.00
2019-06-01T00:23:33.310Z,0.00
2019-06-01T00:24:33.501Z,0.00
2019-06-01T00:25:33.281Z,0.00
2019-06-01T00:27:33.241Z,0.00
2019-06-01T00:28:33.241Z,0.00
2019-06-01T00:29:33.611Z,0.00
2019-06-01T00:30:33.389Z,0.00
2019-06-01T00:31:33.198Z,0.00
2019-06-01T00:32:33.159Z,0.00
2019-06-01T00:33:33.146Z,0.00
2019-06-01T00:34:33.124Z,0.00
2019-06-01T00:35:33.406Z,0.00
2019-06-01T00:36:33.143Z,0.00
2019-06-01T00:37:33.077Z,0.00
2019-06-01T00:40:33.091Z,0.00
2019-06-01T00:41:33.404Z,0.00
2019-06-01T00:42:33.038Z,0.00
2019-06-01T00:43:32.973Z,0.00
2019-06-01T00:44:33.036Z,0.00
2019-06-01T00:45:33.249Z,0.00
2019-06-01T00:47:32.918Z,0.00
2019-06-01T00:48:33.391Z,0.00
2019-06-01T00:49:33.019Z,0.00
2019-06-01T00:50:32.863Z,0.00
2019-06-01T00:51:32.858Z,0.00
2019-06-01T00:52:32.827Z,0.00
2019-06-01T00:53:32.805Z,0.00
2019-06-01T00:54:33.590Z,0.00
2019-06-01T00:55:32.825Z,0.00
2019-06-01T00:56:32.768Z,0.00
2019-06-01T00:58:32.718Z,0.00
2019-06-01T00:59:32.814Z,0.00
2019-06-01T01:00:43.299Z,0.00
2019-06-01T01:01:32.677Z,0.00
2019-06-01T01:02:32.645Z,0.00
2019-06-01T01:03:32.644Z,0.00
2019-06-01T01:04:32.609Z,0.00
2019-06-01T01:05:32.647Z,0.00
2019-06-01T01:06:32.989Z,0.00
2019-06-01T01:07:32.577Z,0.00
2019-06-01T01:08:32.555Z,0.00
2019-06-01T01:09:32.534Z,0.00
2019-06-01T01:10:32.508Z,0.00
2019-06-01T01:11:32.606Z,0.00
2019-06-01T01:12:33.076Z,0.00
2019-06-01T01:13:32.486Z,0.00
2019-06-01T01:14:32.463Z,0.00
2019-06-01T01:15:32.420Z,0.00
2019-06-01T01:16:33.009Z,0.00
2019-06-01T01:17:32.397Z,0.00
2019-06-01T01:18:32.655Z,0.00
2019-06-01T01:19:32.742Z,0.00
2019-06-01T01:20:32.341Z,0.00
2019-06-01T01:21:32.314Z,0.00
2019-06-01T01:22:32.319Z,0.00
2019-06-01T01:23:32.291Z,0.00
2019-06-01T01:24:32.538Z,0.00
2019-06-01T01:25:32.263Z,0.00
2019-06-01T01:27:32.516Z,0.00
2019-06-01T01:28:32.199Z,0.00
2019-06-01T01:29:32.181Z,0.00
2019-06-01T01:30:32.213Z,0.00
2019-06-01T01:31:32.140Z,0.00
2019-06-01T01:32:32.126Z,0.00
2019-06-01T01:33:32.175Z,0.00
2019-06-01T01:34:32.394Z,0.00
2019-06-01T01:35:32.086Z,0.00
2019-06-01T01:36:32.262Z,0.00
2019-06-01T01:37:32.036Z,0.00
2019-06-01T01:38:32.027Z,0.00
2019-06-01T01:40:31.991Z,0.00
2019-06-01T01:42:32.307Z,0.00
2019-06-01T01:43:31.936Z,0.00
2019-06-01T01:44:31.917Z,0.00
2019-06-01T01:45:31.902Z,0.00
2019-06-01T01:46:31.889Z,0.00
2019-06-01T01:47:31.862Z,0.00
2019-06-01T01:48:31.942Z,0.00
2019-06-01T01:49:32.126Z,0.00
2019-06-01T01:50:31.821Z,0.00
2019-06-01T01:51:31.810Z,0.00
2019-06-01T01:52:31.766Z,0.00
2019-06-01T01:53:31.850Z,0.00
2019-06-01T01:54:31.793Z,0.00
2019-06-01T01:56:31.805Z,0.00
2019-06-01T01:57:32.393Z,0.00
2019-06-01T01:58:31.661Z,0.00
2019-06-01T01:59:31.642Z,0.00
2019-06-01T02:00:32.149Z,0.00
2019-06-01T02:01:31.608Z,0.00
2019-06-01T02:02:31.697Z,0.00
2019-06-01T02:03:31.885Z,0.00
2019-06-01T02:04:32.165Z,0.00
2019-06-01T02:05:31.629Z,0.00
2019-06-01T02:06:31.721Z,0.00
2019-06-01T02:07:31.503Z,0.00
2019-06-01T02:08:31.589Z,0.00
2019-06-01T02:09:31.770Z,0.00
2019-06-01T02:10:31.445Z,0.00
2019-06-01T02:11:31.425Z,0.00
2019-06-01T02:12:31.585Z,0.00
2019-06-01T02:13:31.395Z,0.00
2019-06-01T02:14:31.377Z,0.00
2019-06-01T02:15:31.699Z,0.00
2019-06-01T02:17:31.326Z,0.00
2019-06-01T02:18:31.469Z,0.00
2019-06-01T02:19:31.285Z,0.00
2019-06-01T02:20:31.878Z,0.00
2019-06-01T02:21:31.547Z,0.00
2019-06-01T02:22:31.229Z,0.00
2019-06-01T02:23:31.218Z,0.00
2019-06-01T02:24:31.430Z,0.00
2019-06-01T02:25:31.187Z,0.00
2019-06-01T02:26:31.160Z,0.00
2019-06-01T02:27:31.445Z,0.00
2019-06-01T02:28:31.126Z,0.00
2019-06-01T02:29:31.101Z,0.00
2019-06-01T02:30:31.284Z,0.00
2019-06-01T02:31:41.570Z,0.00
2019-06-01T02:32:31.054Z,0.00
2019-06-01T02:33:31.344Z,0.00
2019-06-01T02:34:31.012Z,0.00
2019-06-01T02:35:30.999Z,0.00
2019-06-01T02:36:31.273Z,0.00
2019-06-01T02:37:31.011Z,0.00
2019-06-01T02:38:30.944Z,0.00
2019-06-01T02:39:31.223Z,0.00
2019-06-01T02:40:30.910Z,0.00
2019-06-01T02:41:30.883Z,0.00
2019-06-01T02:44:30.941Z,0.00
2019-06-01T02:45:30.811Z,0.00
2019-06-01T02:46:35.337Z,0.00
2019-06-01T02:47:30.841Z,0.00
2019-06-01T02:48:30.775Z,0.00
2019-06-01T02:49:30.738Z,0.00
2019-06-01T02:50:30.792Z,0.00
2019-06-01T02:51:30.709Z,0.00
2019-06-01T02:52:30.802Z,0.00
2019-06-01T02:53:30.983Z,0.00
2019-06-01T02:54:30.711Z,0.00
2019-06-01T02:55:30.626Z,0.00
2019-06-01T02:56:30.681Z,0.00
2019-06-01T02:57:30.892Z,0.00
2019-06-01T02:58:30.576Z,0.00
2019-06-01T02:59:30.556Z,0.00
2019-06-01T03:00:30.841Z,5.63
2019-06-01T03:01:30.515Z,5.63
2019-06-01T03:02:30.703Z,5.63
2019-06-01T03:03:30.483Z,5.63
2019-06-01T03:04:30.464Z,5.63
2019-06-01T03:05:30.444Z,5.63
2019-06-01T03:06:30.427Z,5.63
2019-06-01T03:07:30.710Z,5.63
2019-06-01T03:09:30.523Z,5.63
2019-06-01T03:10:30.518Z,5.63
2019-06-01T03:11:30.333Z,5.63
2019-06-01T03:12:30.322Z,11.25
2019-06-01T03:13:30.301Z,11.25
2019-06-01T03:14:30.586Z,11.25
2019-06-01T03:15:30.333Z,11.25
2019-06-01T03:16:30.397Z,11.25
2019-06-01T03:17:30.225Z,11.25
2019-06-01T03:18:30.222Z,16.88
2019-06-01T03:19:30.187Z,16.88
2019-06-01T03:20:30.175Z,16.88
2019-06-01T03:21:32.161Z,16.88
2019-06-01T03:22:30.131Z,16.88
2019-06-01T03:23:33.169Z,16.88
2019-06-01T03:24:30.117Z,16.88
2019-06-01T03:25:30.090Z,16.88
2019-06-01T03:26:30.064Z,22.50
2019-06-01T03:27:30.244Z,22.50
2019-06-01T03:28:30.333Z,22.50
2019-06-01T03:29:30.010Z,22.50
2019-06-01T03:30:29.983Z,22.50
2019-06-01T03:31:30.058Z,22.50
2019-06-01T03:32:36.322Z,22.50
2019-06-01T03:33:30.223Z,28.13
2019-06-01T03:34:30.209Z,28.13
2019-06-01T03:35:29.889Z,28.13
2019-06-01T03:36:29.874Z,33.75
2019-06-01T03:37:30.385Z,33.75
2019-06-01T03:38:30.005Z,33.75
2019-06-01T03:39:29.905Z,33.75
2019-06-01T03:40:30.112Z,33.75
2019-06-01T03:41:29.901Z,33.75
2019-06-01T03:42:29.824Z,33.75
2019-06-01T03:43:29.821Z,39.38
2019-06-01T03:44:29.722Z,39.38
2019-06-01T03:45:30.402Z,39.38
2019-06-01T03:46:29.989Z,39.38
2019-06-01T03:47:29.666Z,39.38
2019-06-01T03:48:29.649Z,39.38
2019-06-01T03:49:29.671Z,39.38
2019-06-01T03:50:29.630Z,39.38
2019-06-01T03:51:30.844Z,39.38
2019-06-01T03:52:29.920Z,45.00
2019-06-01T03:53:29.562Z,45.00
2019-06-01T03:54:29.625Z,45.00
2019-06-01T03:55:29.615Z,50.63
2019-06-01T03:56:29.686Z,50.63
2019-06-01T03:57:29.614Z,50.63
2019-06-01T03:58:29.911Z,50.63
2019-06-01T03:59:29.606Z,50.63
2019-06-01T04:00:29.523Z,56.25
2019-06-01T04:01:30.245Z,56.25
2019-06-01T04:02:33.191Z,56.25
2019-06-01T04:03:29.527Z,56.25
2019-06-01T04:04:29.822Z,61.88
2019-06-01T04:05:29.423Z,61.88
2019-06-01T04:06:29.714Z,67.50
2019-06-01T04:07:38.802Z,67.50
2019-06-01T04:08:29.381Z,73.13
2019-06-01T04:09:29.319Z,78.75
2019-06-01T04:10:29.375Z,78.75
2019-06-01T04:11:29.629Z,78.75
2019-06-01T04:12:29.351Z,90.00
2019-06-01T04:13:29.212Z,90.00
2019-06-01T04:14:29.284Z,95.63
2019-06-01T04:15:29.306Z,90.00
2019-06-01T04:16:29.206Z,95.63
2019-06-01T04:17:32.771Z,101.25
2019-06-01T04:18:29.602Z,106.88
2019-06-01T04:19:29.463Z,101.25
2019-06-01T04:20:29.631Z,95.63
2019-06-01T04:21:29.266Z,95.63
2019-06-01T04:22:29.737Z,95.63
2019-06-01T04:23:29.281Z,95.63
2019-06-01T04:24:29.516Z,101.25
2019-06-01T04:25:29.333Z,112.50
2019-06-01T04:26:28.976Z,112.50
2019-06-01T04:27:28.937Z,118.13
2019-06-01T04:28:29.222Z,106.88
2019-06-01T04:29:28.949Z,101.25
2019-06-01T04:30:28.891Z,106.88
2019-06-01T04:31:28.868Z,112.50
2019-06-01T04:32:29.145Z,95.63
2019-06-01T04:33:28.841Z,90.00
2019-06-01T04:34:28.807Z,90.00
2019-06-01T04:36:28.872Z,95.63
2019-06-01T04:37:28.760Z,101.25
2019-06-01T04:38:28.741Z,101.25
2019-06-01T04:39:29.025Z,101.25
2019-06-01T04:41:28.731Z,106.88
2019-06-01T04:42:28.722Z,112.50
2019-06-01T04:43:28.657Z,112.50
2019-06-01T04:45:28.926Z,123.75
2019-06-01T04:46:28.596Z,135.00
2019-06-01T04:47:28.575Z,157.50
2019-06-01T04:48:28.761Z,163.13
2019-06-01T04:49:28.550Z,151.88
2019-06-01T04:50:28.520Z,140.63
2019-06-01T04:51:28.509Z,140.63
2019-06-01T04:52:28.792Z,157.50
2019-06-01T04:53:28.485Z,180.00
2019-06-01T04:54:29.852Z,202.50
2019-06-01T04:55:28.435Z,202.50
2019-06-01T04:56:28.413Z,191.25
2019-06-01T04:57:28.405Z,168.75
2019-06-01T04:58:28.690Z,163.13
2019-06-01T04:59:28.373Z,146.25
2019-06-01T05:00:28.552Z,123.75
2019-06-01T05:01:28.336Z,106.88
2019-06-01T05:02:28.333Z,112.50
2019-06-01T05:03:28.458Z,118.13
2019-06-01T05:04:28.758Z,123.75
2019-06-01T05:05:28.417Z,135.00
2019-06-01T05:06:28.652Z,135.00
2019-06-01T05:07:28.405Z,129.38
2019-06-01T05:08:28.312Z,129.38
2019-06-01T05:09:28.467Z,129.38
2019-06-01T05:10:28.485Z,129.38
2019-06-01T05:11:28.168Z,135.00
2019-06-01T05:12:28.345Z,135.00
2019-06-01T05:13:28.140Z,135.00
2019-06-01T05:14:28.136Z,140.63
2019-06-01T05:15:28.651Z,140.63
2019-06-01T05:16:28.390Z,146.25
2019-06-01T05:17:28.063Z,146.25
2019-06-01T05:18:28.103Z,146.25
2019-06-01T05:19:28.029Z,146.25
2019-06-01T05:20:28.642Z,151.88
2019-06-01T05:21:28.003Z,157.50
2019-06-01T05:22:28.275Z,157.50
2019-06-01T05:23:27.963Z,157.50
2019-06-01T05:24:28.255Z,157.50
2019-06-01T05:25:27.936Z,157.50
2019-06-01T05:26:28.763Z,157.50
2019-06-01T05:27:27.897Z,157.50
2019-06-01T05:28:28.255Z,163.13
2019-06-01T05:29:27.867Z,163.13
2019-06-01T05:30:27.919Z,163.13
2019-06-01T05:31:27.828Z,168.75
2019-06-01T05:32:27.820Z,168.75
2019-06-01T05:33:36.893Z,168.75
2019-06-01T05:34:27.876Z,174.38
2019-06-01T05:35:27.781Z,174.38
2019-06-01T05:36:27.813Z,174.38
2019-06-01T05:37:28.007Z,168.75
2019-06-01T05:38:27.867Z,163.13
2019-06-01T05:39:27.702Z,168.75
2019-06-01T05:40:28.009Z,163.13
2019-06-01T05:42:27.780Z,168.75
2019-06-01T05:43:27.638Z,168.75
2019-06-01T05:44:27.634Z,168.75
2019-06-01T05:45:27.641Z,168.75
2019-06-01T05:46:27.602Z,168.75
2019-06-01T05:47:27.871Z,168.75
2019-06-01T05:48:30.625Z,174.38
2019-06-01T05:49:28.253Z,180.00
2019-06-01T05:50:27.865Z,180.00
2019-06-01T05:51:27.509Z,180.00
2019-06-01T05:52:28.028Z,185.63
2019-06-01T05:54:29.180Z,185.63
2019-06-01T05:55:27.445Z,185.63
2019-06-01T05:56:27.621Z,180.00
2019-06-01T05:57:27.438Z,180.00
2019-06-01T05:59:27.395Z,180.00
2019-06-01T06:00:28.095Z,180.00
2019-06-01T06:01:27.808Z,185.63
2019-06-01T06:02:27.587Z,191.25
2019-06-01T06:03:40.116Z,196.88
2019-06-01T06:04:28.434Z,196.88
2019-06-01T06:05:28.216Z,196.88
2019-06-01T06:06:27.533Z,202.50
2019-06-01T06:07:27.659Z,202.50
2019-06-01T06:08:28.210Z,202.50
2019-06-01T06:09:27.532Z,208.13
2019-06-01T06:10:27.222Z,208.13
2019-06-01T06:11:27.212Z,213.75
2019-06-01T06:12:29.027Z,213.75
2019-06-01T06:13:27.175Z,219.38
2019-06-01T06:14:27.279Z,219.38
2019-06-01T06:15:27.453Z,219.38
2019-06-01T06:16:27.929Z,225.00
2019-06-01T06:17:27.115Z,230.63
2019-06-01T06:18:27.101Z,230.63
2019-06-01T06:19:27.142Z,230.63
2019-06-01T06:20:27.608Z,236.25
2019-06-01T06:21:27.449Z,241.88
2019-06-01T06:24:27.054Z,247.50
2019-06-01T06:25:28.666Z,253.13
2019-06-01T06:26:27.087Z,253.13
2019-06-01T06:27:27.277Z,264.38
2019-06-01T06:28:27.325Z,270.00
2019-06-01T06:29:26.956Z,298.13
2019-06-01T06:30:27.008Z,343.13
2019-06-01T06:31:26.928Z,337.50
2019-06-01T06:32:26.906Z,348.75
2019-06-01T06:34:27.282Z,365.63
2019-06-01T06:35:26.897Z,393.75
2019-06-01T06:36:26.881Z,376.88
2019-06-01T06:37:26.842Z,399.38
2019-06-01T06:38:26.906Z,410.63
2019-06-01T06:39:26.805Z,416.25
2019-06-01T06:40:27.176Z,343.13
2019-06-01T06:41:26.890Z,286.88
2019-06-01T06:42:26.789Z,270.00
2019-06-01T06:43:32.852Z,286.88
2019-06-01T06:44:26.738Z,348.75
2019-06-01T06:45:26.753Z,365.63
2019-06-01T06:46:27.072Z,388.13
2019-06-01T06:47:27.076Z,326.25
2019-06-01T06:48:26.712Z,320.63
2019-06-01T06:49:26.697Z,371.25
2019-06-01T06:50:26.665Z,405.00
2019-06-01T06:51:26.644Z,455.63
2019-06-01T06:52:27.134Z,450.00
2019-06-01T06:53:34.786Z,450.00
2019-06-01T06:54:26.705Z,450.00
2019-06-01T06:55:26.601Z,376.88
2019-06-01T06:56:26.589Z,303.75
2019-06-01T06:57:26.571Z,315.00
2019-06-01T06:58:26.909Z,371.25
2019-06-01T06:59:26.825Z,421.88
2019-06-01T07:00:27.019Z,433.13
2019-06-01T07:02:27.047Z,405.00
2019-06-01T07:03:27.231Z,421.88
2019-06-01T07:04:27.497Z,371.25
2019-06-01T07:05:27.768Z,399.38
2019-06-01T07:06:27.669Z,489.38
2019-06-01T07:08:27.956Z,607.50
2019-06-01T07:09:26.567Z,500.63
2019-06-01T07:10:26.646Z,455.63
2019-06-01T07:11:27.421Z,517.50
2019-06-01T07:12:27.442Z,562.50
2019-06-01T07:13:27.520Z,534.38
2019-06-01T07:14:27.469Z,478.13
2019-06-01T07:15:27.551Z,495.00
2019-06-01T07:16:27.580Z,585.00
2019-06-01T07:18:28.790Z,433.13
2019-06-01T07:19:26.375Z,466.88
2019-06-01T07:20:26.286Z,405.00
2019-06-01T07:21:26.308Z,466.88
2019-06-01T07:22:27.798Z,585.00
2019-06-01T07:23:26.314Z,579.38
2019-06-01T07:24:26.346Z,399.38
2019-06-01T07:25:26.868Z,343.13
2019-06-01T07:26:26.338Z,298.13
2019-06-01T07:27:26.253Z,382.50
2019-06-01T07:29:26.329Z,466.88
2019-06-01T07:30:26.679Z,472.50
2019-06-01T07:31:26.293Z,472.50
2019-06-01T07:32:26.701Z,579.38
2019-06-01T07:33:26.485Z,630.00
2019-06-01T07:34:33.334Z,776.25
2019-06-01T07:35:26.398Z,810.00
2019-06-01T07:36:26.722Z,686.25
2019-06-01T07:37:26.417Z,506.25
2019-06-01T07:38:26.858Z,478.13
2019-06-01T07:40:26.707Z,646.88
2019-06-01T07:41:26.696Z,652.50
2019-06-01T07:42:26.660Z,663.75
2019-06-01T07:43:26.830Z,562.50
2019-06-01T07:44:26.915Z,540.00
2019-06-01T07:45:26.940Z,658.13
2019-06-01T07:46:26.904Z,798.75
2019-06-01T07:47:27.362Z,551.25
2019-06-01T07:48:27.118Z,506.25
2019-06-01T07:49:26.974Z,506.25
2019-06-01T07:50:26.036Z,781.88
2019-06-01T07:51:27.377Z,601.88
2019-06-01T07:52:26.220Z,523.13
2019-06-01T07:53:26.246Z,495.00
2019-06-01T07:54:26.437Z,444.38
2019-06-01T07:55:27.488Z,534.38
2019-06-01T07:56:26.552Z,652.50
2019-06-01T07:57:25.988Z,455.63
2019-06-01T07:58:26.766Z,410.63
2019-06-01T07:59:26.369Z,421.88
2019-06-01T08:00:27.203Z,483.75
2019-06-01T08:01:27.782Z,478.13
2019-06-01T08:02:27.913Z,534.38
2019-06-01T08:03:28.705Z,528.75
2019-06-01T08:04:26.747Z,646.88
2019-06-01T08:05:26.527Z,883.13
2019-06-01T08:06:27.922Z,562.50
2019-06-01T08:07:26.450Z,523.13
2019-06-01T08:08:25.765Z,618.75
2019-06-01T08:09:26.541Z,663.75
2019-06-01T08:10:26.523Z,585.00
2019-06-01T08:11:29.450Z,517.50
2019-06-01T08:12:26.065Z,511.88
2019-06-01T08:15:25.819Z,691.88
2019-06-01T08:16:26.226Z,703.13
2019-06-01T08:17:26.103Z,708.75
2019-06-01T08:19:26.129Z,838.13
2019-06-01T08:20:26.078Z,950.63
2019-06-01T08:21:26.021Z,568.13
2019-06-01T08:22:26.002Z,675.00
2019-06-01T08:24:26.198Z,1856.25
2019-06-01T08:25:26.540Z,3116.25
2019-06-01T08:27:26.474Z,3560.63
2019-06-01T08:28:26.501Z,3645.00
2019-06-01T08:29:26.624Z,3240.00
2019-06-01T08:30:26.418Z,1833.75
2019-06-01T08:32:26.653Z,1265.63
2019-06-01T08:33:28.733Z,2418.75
2019-06-01T08:34:26.921Z,4280.63
2019-06-01T08:37:25.752Z,2188.13
2019-06-01T08:38:27.363Z,3875.63
2019-06-01T08:39:25.459Z,2761.88
2019-06-01T08:40:25.732Z,3999.38
2019-06-01T08:41:25.614Z,3847.50
2019-06-01T08:42:25.478Z,2677.50
2019-06-01T08:43:25.587Z,3678.75
2019-06-01T08:44:25.517Z,4325.63
2019-06-01T08:45:25.705Z,4398.75
2019-06-01T08:46:27.645Z,4820.63
2019-06-01T08:47:25.711Z,3487.50
2019-06-01T08:48:25.686Z,3847.50
2019-06-01T08:49:25.922Z,1569.38
2019-06-01T08:51:26.478Z,1850.63
2019-06-01T08:52:25.964Z,1597.50
2019-06-01T08:53:25.857Z,928.13
2019-06-01T08:55:26.112Z,1035.00
2019-06-01T08:56:26.193Z,888.75
2019-06-01T08:57:26.121Z,1861.88
2019-06-01T08:58:26.235Z,1456.88
2019-06-01T08:59:26.219Z,860.63
2019-06-01T09:00:26.372Z,1530.00
2019-06-01T09:01:26.436Z,3195.00
2019-06-01T09:02:26.487Z,4387.50
2019-06-01T09:03:25.848Z,4021.88
2019-06-01T09:04:26.543Z,3870.00
2019-06-01T09:05:26.795Z,3920.63
2019-06-01T09:06:25.274Z,3571.88
2019-06-01T09:07:25.232Z,3166.88
2019-06-01T09:08:26.001Z,3555.00
2019-06-01T09:09:25.412Z,4224.38
2019-06-01T09:10:25.336Z,4567.50
2019-06-01T09:11:26.955Z,4488.75
2019-06-01T09:12:25.543Z,4646.25
2019-06-01T09:13:25.221Z,4483.13
2019-06-01T09:14:25.264Z,4426.88
2019-06-01T09:15:25.580Z,4303.13
2019-06-01T09:16:25.608Z,4511.25
2019-06-01T09:17:25.390Z,4685.63
2019-06-01T09:18:25.743Z,5028.75
2019-06-01T09:19:25.484Z,4809.38
2019-06-01T09:20:25.571Z,4516.88
2019-06-01T09:21:25.423Z,4550.63
2019-06-01T09:22:25.878Z,4477.50
2019-06-01T09:23:25.497Z,4213.13
2019-06-01T09:24:25.742Z,4190.63
2019-06-01T09:25:25.624Z,4353.75
2019-06-01T09:30:29.940Z,1091.25
2019-06-01T09:31:26.245Z,4494.38
2019-06-01T09:32:26.083Z,4488.75
2019-06-01T09:33:26.073Z,4708.13
2019-06-01T09:34:26.199Z,4651.88
2019-06-01T09:35:46.484Z,4505.63
2019-06-01T09:36:26.135Z,4286.25
2019-06-01T09:37:26.377Z,4578.75
2019-06-01T09:38:25.476Z,4426.88
2019-06-01T09:39:26.483Z,4460.63
2019-06-01T09:40:29.930Z,4691.25
2019-06-01T09:41:26.380Z,4753.13
2019-06-01T09:42:26.616Z,4786.88
2019-06-01T09:43:25.116Z,4151.25
2019-06-01T09:45:25.540Z,4106.25
2019-06-01T09:46:25.248Z,4218.75
2019-06-01T09:47:25.444Z,4578.75
2019-06-01T09:48:25.163Z,4606.88
2019-06-01T09:49:25.024Z,4691.25
2019-06-01T09:50:25.691Z,4325.63
2019-06-01T09:51:25.344Z,4668.75
2019-06-01T09:52:25.354Z,4741.88
2019-06-01T09:53:25.366Z,4758.75
2019-06-01T09:55:25.144Z,4696.88
2019-06-01T09:56:25.107Z,4668.75
2019-06-01T09:57:24.997Z,4432.50
2019-06-01T09:58:25.061Z,3605.63
2019-06-01T09:59:25.315Z,4539.38
2019-06-01T10:00:25.194Z,4443.75
2019-06-01T10:01:25.008Z,4415.63
2019-06-01T10:02:24.980Z,4556.25
2019-06-01T10:03:25.022Z,4432.50
2019-06-01T10:04:25.211Z,1350.00
2019-06-01T10:05:25.384Z,883.13
2019-06-01T10:06:25.079Z,540.00
2019-06-01T10:07:25.371Z,4522.50
2019-06-01T10:08:25.419Z,4550.63
2019-06-01T10:09:24.998Z,4449.38
2019-06-01T10:10:25.047Z,4505.63
2019-06-01T10:11:25.273Z,4353.75
2019-06-01T10:12:25.201Z,4241.25
2019-06-01T10:14:24.960Z,4376.25
2019-06-01T10:15:24.975Z,4398.75
2019-06-01T10:16:26.435Z,4213.13
2019-06-01T10:17:25.292Z,4140.00
2019-06-01T10:18:27.009Z,4353.75
2019-06-01T10:19:24.945Z,4477.50
2019-06-01T10:20:25.746Z,4100.63
2019-06-01T10:21:25.019Z,3751.88
2019-06-01T10:22:24.982Z,2835.00
2019-06-01T10:23:24.938Z,1738.13
2019-06-01T10:24:25.326Z,1293.75
2019-06-01T10:25:24.929Z,1153.13
2019-06-01T10:27:25.460Z,1125.00
2019-06-01T10:29:25.135Z,1091.25
2019-06-01T10:30:24.935Z,1085.63
2019-06-01T10:31:25.500Z,1074.38
2019-06-01T10:32:25.026Z,1102.50
2019-06-01T10:33:25.134Z,1080.00
2019-06-01T10:34:25.073Z,1074.38
2019-06-01T10:35:24.943Z,1080.00
2019-06-01T10:36:24.910Z,1080.00
2019-06-01T10:37:24.956Z,1080.00
2019-06-01T10:38:25.212Z,1074.38
2019-06-01T10:40:25.035Z,1102.50
2019-06-01T10:42:24.907Z,1091.25
2019-06-01T10:43:25.928Z,1102.50
2019-06-01T10:44:24.937Z,1102.50
2019-06-01T10:45:25.207Z,1136.25
2019-06-01T10:46:25.187Z,1170.00
2019-06-01T10:47:24.915Z,1271.25
2019-06-01T10:48:25.072Z,1710.00
2019-06-01T10:49:24.917Z,3037.50
2019-06-01T10:50:25.134Z,4117.50
2019-06-01T10:51:24.914Z,3982.50
2019-06-01T10:52:25.897Z,3796.88
2019-06-01T10:53:24.913Z,3785.63
2019-06-01T10:54:24.915Z,3757.50
2019-06-01T10:55:25.066Z,4072.50
2019-06-01T10:56:24.915Z,3976.88
2019-06-01T10:57:24.900Z,3926.25
2019-06-01T10:58:25.123Z,3600.00
2019-06-01T10:59:25.269Z,3892.50
2019-06-01T11:00:37.897Z,3954.38
2019-06-01T11:01:24.897Z,3999.38
2019-06-01T11:02:24.989Z,4201.88
2019-06-01T11:03:24.893Z,4021.88
2019-06-01T11:04:24.986Z,3858.75
2019-06-01T11:05:24.901Z,3813.75
2019-06-01T11:06:36.637Z,3819.38
2019-06-01T11:07:24.921Z,3729.38
2019-06-01T11:08:24.896Z,3768.75
2019-06-01T11:09:24.914Z,4162.50
2019-06-01T11:10:25.015Z,4179.38
2019-06-01T11:11:24.897Z,3965.63
2019-06-01T11:12:25.208Z,3870.00
2019-06-01T11:13:24.903Z,3690.00
2019-06-01T11:14:24.921Z,3420.00
2019-06-01T11:15:24.891Z,3330.00
2019-06-01T11:16:25.243Z,3493.13
2019-06-01T11:17:24.898Z,3465.00
2019-06-01T11:18:25.497Z,3695.63
2019-06-01T11:19:24.890Z,3515.63
2019-06-01T11:20:24.903Z,3470.63
2019-06-01T11:21:24.899Z,3183.75
2019-06-01T11:22:25.423Z,3127.50
2019-06-01T11:23:24.898Z,2919.38
2019-06-01T11:24:25.238Z,3526.88
2019-06-01T11:25:25.147Z,3690.00
2019-06-01T11:26:24.896Z,2778.75
2019-06-01T11:27:24.893Z,1468.13
2019-06-01T11:28:24.956Z,1046.25
2019-06-01T11:29:24.988Z,984.38
2019-06-01T11:30:25.192Z,950.63
2019-06-01T11:31:25.070Z,933.75
2019-06-01T11:32:24.983Z,933.75
2019-06-01T11:33:24.927Z,922.50
2019-06-01T11:35:24.924Z,911.25
2019-06-01T11:36:25.207Z,916.88
2019-06-01T11:38:24.901Z,871.88
2019-06-01T11:39:24.918Z,894.38
2019-06-01T11:40:25.014Z,855.00
2019-06-01T11:41:24.918Z,900.00
2019-06-01T11:42:25.198Z,945.00
2019-06-01T11:43:24.989Z,928.13
2019-06-01T11:44:24.958Z,1018.13
2019-06-01T11:45:24.915Z,922.50
2019-06-01T11:46:25.233Z,1366.88
2019-06-01T11:47:25.036Z,2424.38
2019-06-01T11:48:25.285Z,3465.00
2019-06-01T11:49:24.890Z,3420.00
2019-06-01T11:50:24.878Z,3240.00
2019-06-01T11:51:24.882Z,3397.50
2019-06-01T11:52:25.192Z,3313.13
2019-06-01T11:53:24.873Z,3121.88
2019-06-01T11:54:27.258Z,2025.00
2019-06-01T11:55:24.879Z,2998.13
2019-06-01T11:56:24.942Z,2998.13
2019-06-01T11:57:24.908Z,2188.13
2019-06-01T11:58:24.931Z,1237.50
2019-06-01T11:59:24.886Z,900.00
2019-06-01T12:00:25.181Z,731.25
2019-06-01T12:01:24.899Z,731.25
2019-06-01T12:02:24.906Z,883.13
2019-06-01T12:03:25.138Z,928.13
2019-06-01T12:04:25.525Z,894.38
2019-06-01T12:05:25.110Z,776.25
2019-06-01T12:06:24.913Z,686.25
2019-06-01T12:07:25.220Z,866.25
2019-06-01T12:08:24.877Z,855.00
2019-06-01T12:09:24.886Z,748.13
2019-06-01T12:10:25.067Z,759.38
2019-06-01T12:11:24.873Z,832.50
2019-06-01T12:12:24.879Z,866.25
2019-06-01T12:13:24.870Z,871.88
2019-06-01T12:14:25.193Z,838.13
2019-06-01T12:15:26.762Z,843.75
2019-06-01T12:16:25.081Z,725.63
2019-06-01T12:17:24.938Z,765.00
2019-06-01T12:18:24.877Z,742.50
2019-06-01T12:19:24.876Z,849.38
2019-06-01T12:20:24.879Z,838.13
2019-06-01T12:21:25.197Z,810.00
2019-06-01T12:22:24.955Z,838.13
2019-06-01T12:23:24.988Z,860.63
2019-06-01T12:24:25.836Z,849.38
2019-06-01T12:27:25.481Z,815.63
2019-06-01T12:28:24.918Z,905.63
2019-06-01T12:29:24.854Z,540.00
2019-06-01T12:30:24.856Z,781.88
2019-06-01T12:31:25.059Z,894.38
2019-06-01T12:32:24.970Z,641.25
2019-06-01T12:33:24.900Z,663.75
2019-06-01T12:34:25.281Z,787.50
2019-06-01T12:36:24.841Z,883.13
2019-06-01T12:38:24.844Z,618.75
2019-06-01T12:39:24.849Z,770.63
2019-06-01T12:40:24.900Z,978.75
2019-06-01T12:41:25.162Z,973.13
2019-06-01T12:42:24.866Z,708.75
2019-06-01T12:43:24.818Z,663.75
2019-06-01T12:44:24.848Z,1136.25
2019-06-01T12:45:24.828Z,478.13
2019-06-01T12:46:26.223Z,528.75
2019-06-01T12:47:24.830Z,2154.38
2019-06-01T12:48:25.159Z,2019.38
2019-06-01T12:49:24.825Z,2199.38
2019-06-01T12:50:24.856Z,770.63
2019-06-01T12:51:24.835Z,2362.50
2019-06-01T12:52:26.198Z,2368.13
2019-06-01T12:53:25.042Z,2396.25
2019-06-01T12:54:24.970Z,461.25
2019-06-01T12:55:24.797Z,793.13
2019-06-01T12:56:25.345Z,2902.50
2019-06-01T12:57:25.015Z,1113.75
2019-06-01T12:58:25.059Z,472.50
2019-06-01T12:59:24.780Z,489.38
2019-06-01T13:00:24.800Z,562.50
2019-06-01T13:01:25.114Z,2098.13
2019-06-01T13:03:24.765Z,1051.88
2019-06-01T13:04:24.865Z,1546.88
2019-06-01T13:05:24.766Z,1141.88
2019-06-01T13:06:24.765Z,495.00
2019-06-01T13:08:25.086Z,568.13
2019-06-01T13:09:24.765Z,1305.00
2019-06-01T13:10:24.889Z,2430.00
2019-06-01T13:11:24.757Z,590.63
2019-06-01T13:12:24.778Z,556.88
2019-06-01T13:13:24.801Z,528.75
2019-06-01T13:14:25.089Z,483.75
2019-06-01T13:15:24.765Z,2199.38
2019-06-01T13:16:25.062Z,1524.38
2019-06-01T13:17:24.720Z,1670.63
2019-06-01T13:18:24.734Z,1361.25
2019-06-01T13:19:24.734Z,1316.25
2019-06-01T13:20:25.067Z,669.38
2019-06-01T13:21:27.686Z,472.50
2019-06-01T13:22:24.914Z,495.00
2019-06-01T13:23:24.871Z,1333.13
2019-06-01T13:24:24.705Z,461.25
2019-06-01T13:25:24.708Z,2030.63
2019-06-01T13:26:25.002Z,1816.88
2019-06-01T13:27:24.699Z,438.75
2019-06-01T13:28:37.629Z,472.50
2019-06-01T13:30:24.738Z,1423.13
2019-06-01T13:32:25.068Z,1698.75
2019-06-01T13:33:24.689Z,500.63
2019-06-01T13:34:26.150Z,506.25
2019-06-01T13:35:24.657Z,545.63
2019-06-01T13:36:24.684Z,562.50